sensor_id;sensor_type;location;lat;lon;timestamp;P1;durP1;ratioP1;P2;durP2;ratioP2
32826;SDS011;51059;42.058;27.986;2024-03-25T00:00:11;15.30;;;10.87;;
32826;SDS011;51059;42.058;27.986;2024-03-25T00:02:39;13.80;;;10.67;;
32826;SDS011;51059;42.058;27.986;2024-03-25T00:05:07;15.70;;;11.57;;
32826;SDS011;51059;42.058;27.986;2024-03-25T00:07:36;15.00;;;11.13;;
32826;SDS011;51059;42.058;27.986;2024-03-25T00:10:03;14.13;;;11.40;;
32826;SDS011;51059;42.058;27.986;2024-03-25T00:12:31;12.60;;;11.17;;
32826;SDS011;51059;42.058;27.986;2024-03-25T00:14:58;15.50;;;12.23;;
32826;SDS011;51059;42.058;27.986;2024-03-25T00:17:24;14.70;;;11.10;;
32826;SDS011;51059;42.058;27.986;2024-03-25T00:19:50;15.97;;;11.13;;
32826;SDS011;51059;42.058;27.986;2024-03-25T00:22:17;18.93;;;11.57;;
32826;SDS011;51059;42.058;27.986;2024-03-25T00:24:47;15.07;;;11.27;;
32826;SDS011;51059;42.058;27.986;2024-03-25T00:27:14;14.73;;;11.67;;
32826;SDS011;51059;42.058;27.986;2024-03-25T00:29:40;15.20;;;11.50;;
32826;SDS011;51059;42.058;27.986;2024-03-25T00:32:07;13.73;;;11.87;;
32826;SDS011;51059;42.058;27.986;2024-03-25T00:34:34;13.87;;;11.53;;
32826;SDS011;51059;42.058;27.986;2024-03-25T00:37:00;13.43;;;10.87;;
32826;SDS011;51059;42.058;27.986;2024-03-25T00:39:27;14.10;;;11.60;;
32826;SDS011;51059;42.058;27.986;2024-03-25T00:41:53;15.00;;;11.37;;
32826;SDS011;51059;42.058;27.986;2024-03-25T00:44:19;13.60;;;11.57;;
32826;SDS011;51059;42.058;27.986;2024-03-25T00:46:45;16.23;;;11.47;;
32826;SDS011;51059;42.058;27.986;2024-03-25T00:49:12;17.63;;;12.53;;
32826;SDS011;51059;42.058;27.986;2024-03-25T00:51:38;17.27;;;11.50;;
32826;SDS011;51059;42.058;27.986;2024-03-25T00:54:04;14.10;;;11.57;;
32826;SDS011;51059;42.058;27.986;2024-03-25T00:56:30;13.10;;;11.10;;
32826;SDS011;51059;42.058;27.986;2024-03-25T00:58:56;17.57;;;11.70;;
32826;SDS011;51059;42.058;27.986;2024-03-25T01:01:27;17.87;;;11.53;;
32826;SDS011;51059;42.058;27.986;2024-03-25T01:03:57;13.40;;;11.97;;
32826;SDS011;51059;42.058;27.986;2024-03-25T01:06:23;13.93;;;11.27;;
32826;SDS011;51059;42.058;27.986;2024-03-25T01:08:49;16.33;;;11.53;;
32826;SDS011;51059;42.058;27.986;2024-03-25T01:11:16;14.83;;;11.93;;
32826;SDS011;51059;42.058;27.986;2024-03-25T01:13:42;15.47;;;11.83;;
32826;SDS011;51059;42.058;27.986;2024-03-25T01:16:08;17.37;;;12.13;;
32826;SDS011;51059;42.058;27.986;2024-03-25T01:18:36;15.10;;;11.93;;
32826;SDS011;51059;42.058;27.986;2024-03-25T01:21:02;14.50;;;11.27;;
32826;SDS011;51059;42.058;27.986;2024-03-25T01:23:30;15.00;;;11.43;;
32826;SDS011;51059;42.058;27.986;2024-03-25T01:25:57;16.70;;;11.30;;
32826;SDS011;51059;42.058;27.986;2024-03-25T01:28:23;13.70;;;11.97;;
32826;SDS011;51059;42.058;27.986;2024-03-25T01:30:49;14.93;;;11.67;;
32826;SDS011;51059;42.058;27.986;2024-03-25T01:33:15;13.43;;;11.13;;
32826;SDS011;51059;42.058;27.986;2024-03-25T01:35:41;13.33;;;11.93;;
32826;SDS011;51059;42.058;27.986;2024-03-25T01:38:07;15.20;;;11.63;;
32826;SDS011;51059;42.058;27.986;2024-03-25T01:40:33;15.37;;;11.73;;
32826;SDS011;51059;42.058;27.986;2024-03-25T01:43:00;18.27;;;12.13;;
32826;SDS011;51059;42.058;27.986;2024-03-25T01:45:28;16.53;;;12.20;;
32826;SDS011;51059;42.058;27.986;2024-03-25T01:47:56;15.03;;;11.43;;
32826;SDS011;51059;42.058;27.986;2024-03-25T01:50:25;15.93;;;12.03;;
32826;SDS011;51059;42.058;27.986;2024-03-25T01:52:52;17.77;;;12.50;;
32826;SDS011;51059;42.058;27.986;2024-03-25T01:55:20;15.43;;;11.97;;
32826;SDS011;51059;42.058;27.986;2024-03-25T01:57:49;13.37;;;11.97;;
32826;SDS011;51059;42.058;27.986;2024-03-25T02:00:15;15.27;;;12.37;;
32826;SDS011;51059;42.058;27.986;2024-03-25T02:02:45;15.37;;;11.63;;
32826;SDS011;51059;42.058;27.986;2024-03-25T02:05:14;12.67;;;11.37;;
32826;SDS011;51059;42.058;27.986;2024-03-25T02:07:41;13.63;;;12.20;;
32826;SDS011;51059;42.058;27.986;2024-03-25T02:10:07;15.93;;;12.97;;
32826;SDS011;51059;42.058;27.986;2024-03-25T02:12:44;16.37;;;12.53;;
32826;SDS011;51059;42.058;27.986;2024-03-25T02:15:12;17.97;;;12.17;;
32826;SDS011;51059;42.058;27.986;2024-03-25T02:17:38;16.03;;;12.60;;
32826;SDS011;51059;42.058;27.986;2024-03-25T02:20:05;17.83;;;12.40;;
32826;SDS011;51059;42.058;27.986;2024-03-25T02:22:33;17.33;;;12.27;;
32826;SDS011;51059;42.058;27.986;2024-03-25T02:25:01;14.23;;;11.70;;
32826;SDS011;51059;42.058;27.986;2024-03-25T02:27:31;16.90;;;12.03;;
32826;SDS011;51059;42.058;27.986;2024-03-25T02:32:38;15.33;;;13.30;;
32826;SDS011;51059;42.058;27.986;2024-03-25T02:35:05;15.23;;;12.77;;
32826;SDS011;51059;42.058;27.986;2024-03-25T02:37:33;18.07;;;13.03;;
32826;SDS011;51059;42.058;27.986;2024-03-25T02:40:00;14.87;;;12.33;;
32826;SDS011;51059;42.058;27.986;2024-03-25T02:42:33;15.03;;;12.30;;
32826;SDS011;51059;42.058;27.986;2024-03-25T02:45:00;17.20;;;12.63;;
32826;SDS011;51059;42.058;27.986;2024-03-25T02:47:27;14.40;;;11.83;;
32826;SDS011;51059;42.058;27.986;2024-03-25T02:49:53;14.57;;;12.27;;
32826;SDS011;51059;42.058;27.986;2024-03-25T02:52:19;19.13;;;14.47;;
32826;SDS011;51059;42.058;27.986;2024-03-25T02:54:45;15.10;;;13.30;;
32826;SDS011;51059;42.058;27.986;2024-03-25T02:57:11;17.50;;;13.13;;
32826;SDS011;51059;42.058;27.986;2024-03-25T02:59:37;16.87;;;12.37;;
32826;SDS011;51059;42.058;27.986;2024-03-25T03:02:03;15.50;;;12.23;;
32826;SDS011;51059;42.058;27.986;2024-03-25T03:04:29;13.30;;;11.80;;
32826;SDS011;51059;42.058;27.986;2024-03-25T03:06:56;16.03;;;12.93;;
32826;SDS011;51059;42.058;27.986;2024-03-25T03:09:22;15.50;;;12.80;;
32826;SDS011;51059;42.058;27.986;2024-03-25T03:11:48;18.73;;;14.57;;
32826;SDS011;51059;42.058;27.986;2024-03-25T03:14:14;17.90;;;14.53;;
32826;SDS011;51059;42.058;27.986;2024-03-25T03:16:39;17.47;;;15.07;;
32826;SDS011;51059;42.058;27.986;2024-03-25T03:19:07;19.40;;;15.60;;
32826;SDS011;51059;42.058;27.986;2024-03-25T03:21:33;19.17;;;15.27;;
32826;SDS011;51059;42.058;27.986;2024-03-25T03:23:59;18.23;;;14.80;;
32826;SDS011;51059;42.058;27.986;2024-03-25T03:26:25;20.97;;;15.07;;
32826;SDS011;51059;42.058;27.986;2024-03-25T03:28:58;21.40;;;16.73;;
32826;SDS011;51059;42.058;27.986;2024-03-25T03:31:25;18.00;;;16.03;;
32826;SDS011;51059;42.058;27.986;2024-03-25T03:33:51;19.63;;;15.90;;
32826;SDS011;51059;42.058;27.986;2024-03-25T03:36:18;15.97;;;14.27;;
32826;SDS011;51059;42.058;27.986;2024-03-25T03:38:45;15.37;;;13.70;;
32826;SDS011;51059;42.058;27.986;2024-03-25T03:41:11;19.63;;;14.47;;
32826;SDS011;51059;42.058;27.986;2024-03-25T03:43:36;16.80;;;13.03;;
32826;SDS011;51059;42.058;27.986;2024-03-25T03:46:04;13.73;;;12.27;;
32826;SDS011;51059;42.058;27.986;2024-03-25T03:48:31;16.73;;;12.03;;
32826;SDS011;51059;42.058;27.986;2024-03-25T03:50:57;14.90;;;13.27;;
32826;SDS011;51059;42.058;27.986;2024-03-25T03:53:23;16.97;;;13.57;;
32826;SDS011;51059;42.058;27.986;2024-03-25T03:56:01;15.90;;;13.40;;
32826;SDS011;51059;42.058;27.986;2024-03-25T03:58:30;14.50;;;12.97;;
32826;SDS011;51059;42.058;27.986;2024-03-25T04:00:57;20.13;;;13.20;;
32826;SDS011;51059;42.058;27.986;2024-03-25T04:03:23;15.60;;;13.13;;
32826;SDS011;51059;42.058;27.986;2024-03-25T04:05:49;16.20;;;12.97;;
32826;SDS011;51059;42.058;27.986;2024-03-25T04:08:15;16.53;;;13.40;;
32826;SDS011;51059;42.058;27.986;2024-03-25T04:10:42;17.90;;;13.80;;
32826;SDS011;51059;42.058;27.986;2024-03-25T04:13:09;15.67;;;12.50;;
32826;SDS011;51059;42.058;27.986;2024-03-25T04:15:36;17.87;;;14.00;;
32826;SDS011;51059;42.058;27.986;2024-03-25T04:18:04;17.53;;;14.13;;
32826;SDS011;51059;42.058;27.986;2024-03-25T04:20:36;18.23;;;14.73;;
32826;SDS011;51059;42.058;27.986;2024-03-25T04:23:03;20.57;;;14.07;;
32826;SDS011;51059;42.058;27.986;2024-03-25T04:25:29;17.70;;;14.53;;
32826;SDS011;51059;42.058;27.986;2024-03-25T04:27:55;17.57;;;15.40;;
32826;SDS011;51059;42.058;27.986;2024-03-25T04:30:21;18.57;;;15.67;;
32826;SDS011;51059;42.058;27.986;2024-03-25T04:32:47;19.40;;;17.07;;
32826;SDS011;51059;42.058;27.986;2024-03-25T04:35:13;23.43;;;17.17;;
32826;SDS011;51059;42.058;27.986;2024-03-25T04:37:39;18.90;;;15.43;;
32826;SDS011;51059;42.058;27.986;2024-03-25T04:40:04;19.67;;;15.83;;
32826;SDS011;51059;42.058;27.986;2024-03-25T04:42:31;21.10;;;16.70;;
32826;SDS011;51059;42.058;27.986;2024-03-25T04:44:57;21.17;;;18.20;;
32826;SDS011;51059;42.058;27.986;2024-03-25T04:47:22;23.10;;;20.70;;
32826;SDS011;51059;42.058;27.986;2024-03-25T04:49:48;24.17;;;21.57;;
32826;SDS011;51059;42.058;27.986;2024-03-25T04:52:16;23.80;;;20.33;;
32826;SDS011;51059;42.058;27.986;2024-03-25T04:54:43;23.93;;;20.33;;
32826;SDS011;51059;42.058;27.986;2024-03-25T04:57:10;23.00;;;20.13;;
32826;SDS011;51059;42.058;27.986;2024-03-25T04:59:36;23.00;;;20.57;;
32826;SDS011;51059;42.058;27.986;2024-03-25T05:02:01;18.93;;;16.80;;
32826;SDS011;51059;42.058;27.986;2024-03-25T05:04:27;23.40;;;17.33;;
32826;SDS011;51059;42.058;27.986;2024-03-25T05:06:53;18.07;;;14.60;;
32826;SDS011;51059;42.058;27.986;2024-03-25T05:09:19;17.73;;;14.93;;
32826;SDS011;51059;42.058;27.986;2024-03-25T05:11:45;18.73;;;14.10;;
32826;SDS011;51059;42.058;27.986;2024-03-25T05:14:12;16.53;;;13.77;;
32826;SDS011;51059;42.058;27.986;2024-03-25T05:16:39;18.57;;;14.53;;
32826;SDS011;51059;42.058;27.986;2024-03-25T05:19:05;18.90;;;14.67;;
32826;SDS011;51059;42.058;27.986;2024-03-25T05:21:31;17.57;;;14.63;;
32826;SDS011;51059;42.058;27.986;2024-03-25T05:23:57;17.27;;;13.83;;
32826;SDS011;51059;42.058;27.986;2024-03-25T05:26:23;22.27;;;15.10;;
32826;SDS011;51059;42.058;27.986;2024-03-25T05:28:53;18.87;;;14.23;;
32826;SDS011;51059;42.058;27.986;2024-03-25T05:31:19;19.33;;;14.40;;
32826;SDS011;51059;42.058;27.986;2024-03-25T05:33:45;17.87;;;13.60;;
32826;SDS011;51059;42.058;27.986;2024-03-25T05:36:11;17.10;;;12.80;;
32826;SDS011;51059;42.058;27.986;2024-03-25T05:38:37;16.37;;;12.87;;
32826;SDS011;51059;42.058;27.986;2024-03-25T05:41:03;18.53;;;12.60;;
32826;SDS011;51059;42.058;27.986;2024-03-25T05:43:30;13.57;;;12.17;;
32826;SDS011;51059;42.058;27.986;2024-03-25T05:45:57;13.20;;;11.80;;
32826;SDS011;51059;42.058;27.986;2024-03-25T05:48:25;15.77;;;11.77;;
32826;SDS011;51059;42.058;27.986;2024-03-25T05:53:25;16.60;;;11.53;;
32826;SDS011;51059;42.058;27.986;2024-03-25T05:55:52;14.97;;;11.70;;
32826;SDS011;51059;42.058;27.986;2024-03-25T05:58:18;15.23;;;10.93;;
32826;SDS011;51059;42.058;27.986;2024-03-25T06:00:46;14.47;;;11.20;;
32826;SDS011;51059;42.058;27.986;2024-03-25T06:03:13;14.23;;;11.40;;
32826;SDS011;51059;42.058;27.986;2024-03-25T06:05:39;12.20;;;10.90;;
32826;SDS011;51059;42.058;27.986;2024-03-25T06:08:07;16.30;;;11.23;;
32826;SDS011;51059;42.058;27.986;2024-03-25T06:10:41;13.23;;;11.57;;
32826;SDS011;51059;42.058;27.986;2024-03-25T06:13:07;18.13;;;11.40;;
32826;SDS011;51059;42.058;27.986;2024-03-25T06:15:33;18.93;;;12.43;;
32826;SDS011;51059;42.058;27.986;2024-03-25T06:17:59;16.43;;;12.30;;
32826;SDS011;51059;42.058;27.986;2024-03-25T06:20:25;17.33;;;12.00;;
32826;SDS011;51059;42.058;27.986;2024-03-25T06:22:51;16.50;;;12.63;;
32826;SDS011;51059;42.058;27.986;2024-03-25T06:25:17;17.43;;;12.20;;
32826;SDS011;51059;42.058;27.986;2024-03-25T06:27:43;17.00;;;11.97;;
32826;SDS011;51059;42.058;27.986;2024-03-25T06:30:09;15.43;;;13.00;;
32826;SDS011;51059;42.058;27.986;2024-03-25T06:32:55;20.43;;;15.80;;
32826;SDS011;51059;42.058;27.986;2024-03-25T06:35:42;19.77;;;16.40;;
32826;SDS011;51059;42.058;27.986;2024-03-25T06:38:10;19.97;;;16.47;;
32826;SDS011;51059;42.058;27.986;2024-03-25T06:40:36;20.97;;;15.03;;
32826;SDS011;51059;42.058;27.986;2024-03-25T06:43:02;24.90;;;16.10;;
32826;SDS011;51059;42.058;27.986;2024-03-25T06:45:28;23.53;;;17.03;;
32826;SDS011;51059;42.058;27.986;2024-03-25T06:47:55;24.70;;;16.87;;
32826;SDS011;51059;42.058;27.986;2024-03-25T06:50:21;35.93;;;19.03;;
32826;SDS011;51059;42.058;27.986;2024-03-25T06:52:48;40.93;;;16.50;;
32826;SDS011;51059;42.058;27.986;2024-03-25T06:55:15;27.77;;;11.73;;
32826;SDS011;51059;42.058;27.986;2024-03-25T06:57:42;15.43;;;8.87;;
32826;SDS011;51059;42.058;27.986;2024-03-25T07:00:09;16.20;;;8.77;;
32826;SDS011;51059;42.058;27.986;2024-03-25T07:02:39;20.07;;;8.23;;
32826;SDS011;51059;42.058;27.986;2024-03-25T07:05:06;17.10;;;8.77;;
32826;SDS011;51059;42.058;27.986;2024-03-25T07:07:33;19.00;;;8.73;;
32826;SDS011;51059;42.058;27.986;2024-03-25T07:10:02;17.50;;;9.57;;
32826;SDS011;51059;42.058;27.986;2024-03-25T07:12:30;24.67;;;12.23;;
32826;SDS011;51059;42.058;27.986;2024-03-25T07:14:56;21.30;;;13.57;;
32826;SDS011;51059;42.058;27.986;2024-03-25T07:17:21;16.33;;;13.17;;
32826;SDS011;51059;42.058;27.986;2024-03-25T07:19:47;13.73;;;11.17;;
32826;SDS011;51059;42.058;27.986;2024-03-25T07:22:13;9.87;;;8.63;;
32826;SDS011;51059;42.058;27.986;2024-03-25T07:24:39;6.40;;;5.80;;
32826;SDS011;51059;42.058;27.986;2024-03-25T07:27:06;4.73;;;4.33;;
32826;SDS011;51059;42.058;27.986;2024-03-25T07:29:34;6.07;;;4.97;;
32826;SDS011;51059;42.058;27.986;2024-03-25T07:32:00;4.10;;;3.70;;
32826;SDS011;51059;42.058;27.986;2024-03-25T07:34:26;3.40;;;2.83;;
32826;SDS011;51059;42.058;27.986;2024-03-25T07:36:52;3.00;;;2.60;;
32826;SDS011;51059;42.058;27.986;2024-03-25T07:39:18;2.10;;;1.97;;
32826;SDS011;51059;42.058;27.986;2024-03-25T07:41:44;2.23;;;2.03;;
32826;SDS011;51059;42.058;27.986;2024-03-25T07:44:09;1.83;;;1.73;;
32826;SDS011;51059;42.058;27.986;2024-03-25T07:46:35;1.37;;;1.23;;
32826;SDS011;51059;42.058;27.986;2024-03-25T07:49:01;1.73;;;0.90;;
32826;SDS011;51059;42.058;27.986;2024-03-25T07:51:27;1.20;;;0.90;;
32826;SDS011;51059;42.058;27.986;2024-03-25T07:53:53;2.83;;;1.53;;
32826;SDS011;51059;42.058;27.986;2024-03-25T07:56:19;3.97;;;2.00;;
32826;SDS011;51059;42.058;27.986;2024-03-25T07:58:45;2.60;;;2.07;;
32826;SDS011;51059;42.058;27.986;2024-03-25T08:01:11;4.53;;;2.00;;
32826;SDS011;51059;42.058;27.986;2024-03-25T08:03:37;2.23;;;1.30;;
32826;SDS011;51059;42.058;27.986;2024-03-25T08:06:03;3.60;;;1.40;;
32826;SDS011;51059;42.058;27.986;2024-03-25T08:08:29;2.03;;;1.17;;
32826;SDS011;51059;42.058;27.986;2024-03-25T08:10:55;1.63;;;1.50;;
32826;SDS011;51059;42.058;27.986;2024-03-25T08:13:21;1.43;;;1.30;;
32826;SDS011;51059;42.058;27.986;2024-03-25T08:15:47;1.43;;;1.33;;
32826;SDS011;51059;42.058;27.986;2024-03-25T08:18:13;0.97;;;0.83;;
32826;SDS011;51059;42.058;27.986;2024-03-25T08:20:40;1.87;;;1.00;;
32826;SDS011;51059;42.058;27.986;2024-03-25T08:23:06;1.00;;;0.60;;
32826;SDS011;51059;42.058;27.986;2024-03-25T08:25:32;0.70;;;0.50;;
32826;SDS011;51059;42.058;27.986;2024-03-25T08:27:58;0.40;;;0.40;;
32826;SDS011;51059;42.058;27.986;2024-03-25T08:30:23;0.67;;;0.40;;
32826;SDS011;51059;42.058;27.986;2024-03-25T08:32:58;0.50;;;0.50;;
32826;SDS011;51059;42.058;27.986;2024-03-25T08:35:24;0.40;;;0.40;;
32826;SDS011;51059;42.058;27.986;2024-03-25T08:37:49;0.70;;;0.50;;
32826;SDS011;51059;42.058;27.986;2024-03-25T08:40:15;0.83;;;0.47;;
32826;SDS011;51059;42.058;27.986;2024-03-25T08:42:42;1.27;;;0.70;;
32826;SDS011;51059;42.058;27.986;2024-03-25T08:45:08;0.50;;;0.40;;
32826;SDS011;51059;42.058;27.986;2024-03-25T08:47:34;0.50;;;0.50;;
32826;SDS011;51059;42.058;27.986;2024-03-25T08:50:00;1.87;;;0.60;;
32826;SDS011;51059;42.058;27.986;2024-03-25T08:52:27;2.13;;;0.70;;
32826;SDS011;51059;42.058;27.986;2024-03-25T08:54:53;0.80;;;0.80;;
32826;SDS011;51059;42.058;27.986;2024-03-25T08:57:19;1.97;;;1.00;;
32826;SDS011;51059;42.058;27.986;2024-03-25T08:59:45;1.47;;;0.90;;
32826;SDS011;51059;42.058;27.986;2024-03-25T09:02:10;0.60;;;0.60;;
32826;SDS011;51059;42.058;27.986;2024-03-25T09:04:36;0.63;;;0.60;;
32826;SDS011;51059;42.058;27.986;2024-03-25T09:07:02;1.27;;;0.80;;
32826;SDS011;51059;42.058;27.986;2024-03-25T09:09:29;1.10;;;0.67;;
32826;SDS011;51059;42.058;27.986;2024-03-25T09:12:14;1.23;;;0.80;;
32826;SDS011;51059;42.058;27.986;2024-03-25T09:14:40;0.90;;;0.60;;
32826;SDS011;51059;42.058;27.986;2024-03-25T09:17:06;2.83;;;0.77;;
32826;SDS011;51059;42.058;27.986;2024-03-25T09:19:32;3.17;;;0.80;;
32826;SDS011;51059;42.058;27.986;2024-03-25T09:21:59;1.63;;;0.60;;
32826;SDS011;51059;42.058;27.986;2024-03-25T09:24:25;1.03;;;0.63;;
32826;SDS011;51059;42.058;27.986;2024-03-25T09:26:50;1.13;;;0.73;;
32826;SDS011;51059;42.058;27.986;2024-03-25T09:29:16;1.97;;;0.63;;
32826;SDS011;51059;42.058;27.986;2024-03-25T09:31:42;0.90;;;0.53;;
32826;SDS011;51059;42.058;27.986;2024-03-25T09:34:08;2.70;;;0.70;;
32826;SDS011;51059;42.058;27.986;2024-03-25T09:36:34;4.63;;;0.73;;
32826;SDS011;51059;42.058;27.986;2024-03-25T09:39:00;2.07;;;1.00;;
32826;SDS011;51059;42.058;27.986;2024-03-25T09:41:26;1.93;;;1.23;;
32826;SDS011;51059;42.058;27.986;2024-03-25T09:43:56;1.80;;;1.50;;
32826;SDS011;51059;42.058;27.986;2024-03-25T09:46:22;1.70;;;1.40;;
32826;SDS011;51059;42.058;27.986;2024-03-25T09:48:52;1.77;;;1.20;;
32826;SDS011;51059;42.058;27.986;2024-03-25T09:51:19;2.20;;;1.43;;
32826;SDS011;51059;42.058;27.986;2024-03-25T09:53:48;3.10;;;1.30;;
32826;SDS011;51059;42.058;27.986;2024-03-25T09:56:14;1.60;;;1.37;;
32826;SDS011;51059;42.058;27.986;2024-03-25T09:58:40;1.60;;;1.50;;
32826;SDS011;51059;42.058;27.986;2024-03-25T10:01:09;2.97;;;1.30;;
32826;SDS011;51059;42.058;27.986;2024-03-25T10:03:35;2.40;;;1.93;;
32826;SDS011;51059;42.058;27.986;2024-03-25T10:06:01;2.53;;;1.70;;
32826;SDS011;51059;42.058;27.986;2024-03-25T10:08:29;2.00;;;1.80;;
32826;SDS011;51059;42.058;27.986;2024-03-25T10:10:55;2.20;;;2.00;;
32826;SDS011;51059;42.058;27.986;2024-03-25T10:13:24;3.87;;;2.03;;
32826;SDS011;51059;42.058;27.986;2024-03-25T10:15:50;3.20;;;2.27;;
32826;SDS011;51059;42.058;27.986;2024-03-25T10:18:17;2.40;;;2.10;;
32826;SDS011;51059;42.058;27.986;2024-03-25T10:20:52;2.50;;;2.10;;
32826;SDS011;51059;42.058;27.986;2024-03-25T10:23:27;4.23;;;2.50;;
32826;SDS011;51059;42.058;27.986;2024-03-25T10:25:53;5.03;;;2.50;;
32826;SDS011;51059;42.058;27.986;2024-03-25T10:28:19;2.50;;;2.30;;
32826;SDS011;51059;42.058;27.986;2024-03-25T10:30:45;2.10;;;1.90;;
32826;SDS011;51059;42.058;27.986;2024-03-25T10:33:11;3.33;;;1.93;;
32826;SDS011;51059;42.058;27.986;2024-03-25T10:35:37;2.90;;;2.30;;
32826;SDS011;51059;42.058;27.986;2024-03-25T10:38:05;2.60;;;2.27;;
32826;SDS011;51059;42.058;27.986;2024-03-25T10:40:36;6.23;;;2.10;;
32826;SDS011;51059;42.058;27.986;2024-03-25T10:43:07;2.70;;;2.40;;
32826;SDS011;51059;42.058;27.986;2024-03-25T10:45:35;3.07;;;2.30;;
32826;SDS011;51059;42.058;27.986;2024-03-25T10:50:38;4.17;;;2.70;;
32826;SDS011;51059;42.058;27.986;2024-03-25T10:53:06;3.53;;;2.37;;
32826;SDS011;51059;42.058;27.986;2024-03-25T10:55:33;2.43;;;2.10;;
32826;SDS011;51059;42.058;27.986;2024-03-25T10:58:01;2.93;;;2.27;;
32826;SDS011;51059;42.058;27.986;2024-03-25T11:00:32;3.53;;;2.33;;
32826;SDS011;51059;42.058;27.986;2024-03-25T11:03:00;4.10;;;2.30;;
32826;SDS011;51059;42.058;27.986;2024-03-25T11:05:26;2.97;;;2.27;;
32826;SDS011;51059;42.058;27.986;2024-03-25T11:07:54;4.63;;;2.70;;
32826;SDS011;51059;42.058;27.986;2024-03-25T11:10:28;4.47;;;2.63;;
32826;SDS011;51059;42.058;27.986;2024-03-25T11:12:54;3.27;;;2.70;;
32826;SDS011;51059;42.058;27.986;2024-03-25T11:15:20;4.13;;;2.83;;
32826;SDS011;51059;42.058;27.986;2024-03-25T11:17:49;3.57;;;2.40;;
32826;SDS011;51059;42.058;27.986;2024-03-25T11:20:16;3.70;;;2.20;;
32826;SDS011;51059;42.058;27.986;2024-03-25T11:22:48;3.40;;;2.73;;
32826;SDS011;51059;42.058;27.986;2024-03-25T11:25:18;3.20;;;2.73;;
32826;SDS011;51059;42.058;27.986;2024-03-25T11:27:46;4.20;;;2.80;;
32826;SDS011;51059;42.058;27.986;2024-03-25T11:30:13;3.20;;;2.20;;
32826;SDS011;51059;42.058;27.986;2024-03-25T11:32:46;3.43;;;2.90;;
32826;SDS011;51059;42.058;27.986;2024-03-25T11:35:16;4.23;;;3.00;;
32826;SDS011;51059;42.058;27.986;2024-03-25T11:37:42;4.97;;;3.43;;
32826;SDS011;51059;42.058;27.986;2024-03-25T11:40:09;3.87;;;3.47;;
32826;SDS011;51059;42.058;27.986;2024-03-25T11:42:40;4.53;;;3.57;;
32826;SDS011;51059;42.058;27.986;2024-03-25T11:45:16;5.17;;;3.27;;
32826;SDS011;51059;42.058;27.986;2024-03-25T11:47:48;4.33;;;3.30;;
32826;SDS011;51059;42.058;27.986;2024-03-25T11:50:15;4.63;;;3.43;;
32826;SDS011;51059;42.058;27.986;2024-03-25T11:52:42;3.60;;;3.23;;
32826;SDS011;51059;42.058;27.986;2024-03-25T11:55:10;3.80;;;3.30;;
32826;SDS011;51059;42.058;27.986;2024-03-25T11:57:37;3.93;;;3.23;;
32826;SDS011;51059;42.058;27.986;2024-03-25T12:00:04;5.77;;;3.07;;
32826;SDS011;51059;42.058;27.986;2024-03-25T12:02:31;6.23;;;3.30;;
32826;SDS011;51059;42.058;27.986;2024-03-25T12:04:58;5.93;;;2.97;;
32826;SDS011;51059;42.058;27.986;2024-03-25T12:07:24;5.90;;;2.77;;
32826;SDS011;51059;42.058;27.986;2024-03-25T12:09:50;7.80;;;2.80;;
32826;SDS011;51059;42.058;27.986;2024-03-25T12:12:34;7.67;;;2.63;;
32826;SDS011;51059;42.058;27.986;2024-03-25T12:15:00;6.10;;;3.50;;
32826;SDS011;51059;42.058;27.986;2024-03-25T12:17:30;6.27;;;3.57;;
32826;SDS011;51059;42.058;27.986;2024-03-25T12:20:03;12.80;;;3.60;;
32826;SDS011;51059;42.058;27.986;2024-03-25T12:22:34;5.37;;;2.63;;
32826;SDS011;51059;42.058;27.986;2024-03-25T12:25:01;3.67;;;2.03;;
32826;SDS011;51059;42.058;27.986;2024-03-25T12:27:31;4.73;;;2.10;;
32826;SDS011;51059;42.058;27.986;2024-03-25T12:30:02;4.47;;;2.20;;
32826;SDS011;51059;42.058;27.986;2024-03-25T12:32:41;5.77;;;2.73;;
32826;SDS011;51059;42.058;27.986;2024-03-25T12:35:10;4.70;;;2.40;;
32826;SDS011;51059;42.058;27.986;2024-03-25T12:37:44;5.77;;;2.57;;
32826;SDS011;51059;42.058;27.986;2024-03-25T12:40:11;3.97;;;2.33;;
32826;SDS011;51059;42.058;27.986;2024-03-25T12:42:41;5.80;;;2.00;;
32826;SDS011;51059;42.058;27.986;2024-03-25T12:45:07;3.13;;;1.80;;
32826;SDS011;51059;42.058;27.986;2024-03-25T12:47:35;3.47;;;1.97;;
32826;SDS011;51059;42.058;27.986;2024-03-25T12:50:01;3.47;;;1.80;;
32826;SDS011;51059;42.058;27.986;2024-03-25T12:52:28;5.70;;;1.93;;
32826;SDS011;51059;42.058;27.986;2024-03-25T12:54:54;4.57;;;1.70;;
32826;SDS011;51059;42.058;27.986;2024-03-25T12:57:20;4.23;;;1.63;;
32826;SDS011;51059;42.058;27.986;2024-03-25T12:59:46;3.60;;;1.70;;
32826;SDS011;51059;42.058;27.986;2024-03-25T13:02:12;9.37;;;5.70;;
32826;SDS011;51059;42.058;27.986;2024-03-25T13:04:38;11.83;;;6.60;;
32826;SDS011;51059;42.058;27.986;2024-03-25T13:07:05;8.17;;;4.00;;
32826;SDS011;51059;42.058;27.986;2024-03-25T13:09:31;4.43;;;2.17;;
32826;SDS011;51059;42.058;27.986;2024-03-25T13:11:57;3.23;;;1.57;;
32826;SDS011;51059;42.058;27.986;2024-03-25T13:14:24;5.23;;;1.70;;
32826;SDS011;51059;42.058;27.986;2024-03-25T13:16:51;2.77;;;1.50;;
32826;SDS011;51059;42.058;27.986;2024-03-25T13:19:17;5.20;;;1.70;;
32826;SDS011;51059;42.058;27.986;2024-03-25T13:21:42;2.33;;;1.20;;
32826;SDS011;51059;42.058;27.986;2024-03-25T13:24:10;3.80;;;1.50;;
32826;SDS011;51059;42.058;27.986;2024-03-25T13:26:36;3.73;;;1.40;;
32826;SDS011;51059;42.058;27.986;2024-03-25T13:29:02;12.63;;;7.07;;
32826;SDS011;51059;42.058;27.986;2024-03-25T13:31:28;9.90;;;4.27;;
32826;SDS011;51059;42.058;27.986;2024-03-25T13:33:54;8.57;;;2.23;;
32826;SDS011;51059;42.058;27.986;2024-03-25T13:36:20;4.73;;;1.50;;
32826;SDS011;51059;42.058;27.986;2024-03-25T13:38:46;3.27;;;1.37;;
32826;SDS011;51059;42.058;27.986;2024-03-25T13:41:11;4.23;;;1.67;;
32826;SDS011;51059;42.058;27.986;2024-03-25T13:43:42;2.57;;;1.10;;
32826;SDS011;51059;42.058;27.986;2024-03-25T13:46:08;7.87;;;2.00;;
32826;SDS011;51059;42.058;27.986;2024-03-25T13:48:34;10.23;;;1.60;;
32826;SDS011;51059;42.058;27.986;2024-03-25T13:51:00;9.27;;;4.40;;
32826;SDS011;51059;42.058;27.986;2024-03-25T13:53:26;3.60;;;2.40;;
32826;SDS011;51059;42.058;27.986;2024-03-25T13:55:52;6.37;;;4.23;;
32826;SDS011;51059;42.058;27.986;2024-03-25T13:58:18;3.17;;;1.20;;
32826;SDS011;51059;42.058;27.986;2024-03-25T14:00:44;2.90;;;1.33;;
32826;SDS011;51059;42.058;27.986;2024-03-25T14:03:11;3.13;;;1.10;;
32826;SDS011;51059;42.058;27.986;2024-03-25T14:05:38;4.93;;;1.20;;
32826;SDS011;51059;42.058;27.986;2024-03-25T14:08:03;4.63;;;1.03;;
32826;SDS011;51059;42.058;27.986;2024-03-25T14:10:29;3.67;;;1.20;;
32826;SDS011;51059;42.058;27.986;2024-03-25T14:12:55;2.30;;;1.10;;
32826;SDS011;51059;42.058;27.986;2024-03-25T14:15:22;1.80;;;0.77;;
32826;SDS011;51059;42.058;27.986;2024-03-25T14:17:48;3.50;;;1.13;;
32826;SDS011;51059;42.058;27.986;2024-03-25T14:20:14;3.43;;;1.03;;
32826;SDS011;51059;42.058;27.986;2024-03-25T14:22:40;4.00;;;1.07;;
32826;SDS011;51059;42.058;27.986;2024-03-25T14:25:07;2.90;;;1.00;;
32826;SDS011;51059;42.058;27.986;2024-03-25T14:27:34;3.83;;;1.00;;